createdAt,value
2018-10-11T00:00:03.286Z,32.37
2018-10-11T00:02:32.135Z,33.20
2018-10-11T00:05:01.493Z,31.90
2018-10-11T00:07:30.317Z,33.13
2018-10-11T00:09:59.380Z,34.10
2018-10-11T00:12:28.363Z,31.80
2018-10-11T00:14:57.771Z,33.93
2018-10-11T00:17:27.504Z,31.80
2018-10-11T00:19:56.216Z,33.23
2018-10-11T00:22:25.404Z,35.07
2018-10-11T00:24:54.217Z,34.67
2018-10-11T00:27:22.930Z,32.77
2018-10-11T00:29:51.686Z,35.40
2018-10-11T00:32:20.688Z,35.90
2018-10-11T00:34:49.799Z,35.37
2018-10-11T00:37:18.654Z,34.20
2018-10-11T00:39:47.411Z,34.47
2018-10-11T00:42:16.128Z,34.93
2018-10-11T00:44:44.883Z,35.30
2018-10-11T00:47:13.542Z,35.13
2018-10-11T00:49:42.280Z,33.77
2018-10-11T00:52:11.304Z,35.57
2018-10-11T00:54:40.448Z,35.47
2018-10-11T00:57:09.159Z,36.50
2018-10-11T00:59:37.852Z,34.80
2018-10-11T01:02:06.837Z,35.57
2018-10-11T01:04:35.627Z,34.50
2018-10-11T01:07:04.351Z,35.07
2018-10-11T01:09:33.029Z,33.80
2018-10-11T01:12:01.781Z,35.07
2018-10-11T01:14:30.474Z,35.20
2018-10-11T01:16:59.370Z,36.40
2018-10-11T01:19:28.351Z,35.10
2018-10-11T01:21:57.574Z,35.60
2018-10-11T01:24:27.136Z,35.20
2018-10-11T01:26:56.057Z,36.00
2018-10-11T01:29:25.181Z,35.17
2018-10-11T01:31:54.625Z,34.93
2018-10-11T01:34:23.314Z,35.10
2018-10-11T01:36:52.507Z,34.80
2018-10-11T01:39:21.635Z,35.57
2018-10-11T01:41:50.825Z,36.30
2018-10-11T01:44:19.610Z,35.00
2018-10-11T01:46:48.682Z,35.40
2018-10-11T01:49:17.499Z,35.70
2018-10-11T01:51:46.632Z,34.10
2018-10-11T01:54:15.700Z,35.03
2018-10-11T01:56:45.081Z,35.43
2018-10-11T01:59:13.850Z,34.07
2018-10-11T02:01:42.865Z,33.57
2018-10-11T02:04:11.632Z,36.67
2018-10-11T02:06:40.333Z,34.67
2018-10-11T02:09:09.496Z,34.87
2018-10-11T02:11:38.418Z,34.63
2018-10-11T02:14:07.259Z,33.90
2018-10-11T02:16:36.274Z,34.27
2018-10-11T02:19:05.471Z,33.20
2018-10-11T02:21:34.178Z,35.70
2018-10-11T02:24:02.879Z,34.87
2018-10-11T02:26:31.579Z,35.40
2018-10-11T02:29:00.338Z,34.53
2018-10-11T02:31:31.092Z,36.20
2018-10-11T02:33:59.787Z,33.80
2018-10-11T02:36:28.927Z,36.47
2018-10-11T02:38:58.222Z,34.93
2018-10-11T02:41:26.926Z,35.50
2018-10-11T02:43:56.159Z,35.63
2018-10-11T02:46:24.857Z,35.03
2018-10-11T02:48:53.617Z,35.13
2018-10-11T02:51:22.618Z,36.20
2018-10-11T02:53:51.875Z,34.63
2018-10-11T02:56:22.450Z,34.20
2018-10-11T02:59:02.137Z,34.07
2018-10-11T03:01:31.356Z,35.57
2018-10-11T03:04:04.240Z,36.03
2018-10-11T03:06:34.701Z,34.00
2018-10-11T03:09:04.727Z,32.70
2018-10-11T03:11:33.540Z,35.07
2018-10-11T03:14:02.369Z,34.57
2018-10-11T03:16:31.066Z,37.33
2018-10-11T03:19:00.270Z,34.40
2018-10-11T03:21:28.987Z,33.83
2018-10-11T03:23:57.978Z,33.80
2018-10-11T03:26:26.714Z,33.10
2018-10-11T03:28:55.438Z,34.33
2018-10-11T03:31:24.469Z,34.60
2018-10-11T03:33:53.521Z,34.33
2018-10-11T03:36:22.457Z,33.10
2018-10-11T03:38:51.423Z,34.47
2018-10-11T03:41:20.146Z,32.87
2018-10-11T03:43:48.863Z,36.07
2018-10-11T03:46:17.798Z,35.93
2018-10-11T03:48:46.503Z,34.23
2018-10-11T03:51:15.323Z,33.40
2018-10-11T03:53:44.635Z,33.00
2018-10-11T03:56:13.931Z,33.43
2018-10-11T03:58:42.650Z,32.30
2018-10-11T04:01:11.425Z,34.37
2018-10-11T04:03:40.206Z,34.67
2018-10-11T04:06:09.002Z,31.70
2018-10-11T04:08:38.282Z,33.10
2018-10-11T04:11:06.990Z,32.80
2018-10-11T04:13:35.673Z,35.27
2018-10-11T04:16:04.713Z,33.40
2018-10-11T04:18:33.514Z,32.20
2018-10-11T04:21:02.218Z,33.90
2018-10-11T04:23:32.329Z,34.40
2018-10-11T04:26:01.492Z,33.83
2018-10-11T04:28:30.734Z,34.67
2018-10-11T04:31:01.224Z,35.30
2018-10-11T04:33:30.548Z,34.10
2018-10-11T04:35:59.803Z,34.17
2018-10-11T04:38:28.972Z,34.80
2018-10-11T04:40:58.151Z,33.57
2018-10-11T04:43:26.890Z,33.73
2018-10-11T04:45:56.297Z,33.60
2018-10-11T04:48:26.100Z,34.80
2018-10-11T04:50:55.648Z,34.67
2018-10-11T04:53:24.410Z,33.63
2018-10-11T04:55:53.806Z,32.17
2018-10-11T04:58:22.609Z,33.90
2018-10-11T05:00:51.341Z,34.30
2018-10-11T05:03:21.611Z,34.70
2018-10-11T05:05:50.293Z,32.57
2018-10-11T05:08:19.390Z,34.30
2018-10-11T05:10:48.702Z,34.47
2018-10-11T05:13:18.201Z,33.77
2018-10-11T05:15:47.029Z,32.63
2018-10-11T05:18:17.834Z,31.33
2018-10-11T05:20:46.799Z,32.30
2018-10-11T05:23:15.929Z,32.27
2018-10-11T05:25:44.772Z,34.47
2018-10-11T05:28:13.815Z,32.20
2018-10-11T05:30:45.167Z,33.70
2018-10-11T05:33:15.089Z,31.87
2018-10-11T05:35:44.376Z,31.50
2018-10-11T05:38:13.199Z,32.03
2018-10-11T05:40:42.313Z,31.20
2018-10-11T05:43:12.686Z,32.27
2018-10-11T05:45:41.825Z,31.57
2018-10-11T05:48:10.633Z,32.57
2018-10-11T05:50:39.668Z,32.00
2018-10-11T05:53:08.014Z,32.40
2018-10-11T05:55:36.807Z,45.47
2018-10-11T05:58:05.714Z,39.47
2018-10-11T06:00:34.916Z,31.83
2018-10-11T06:03:04.314Z,30.70
2018-10-11T06:05:33.437Z,36.20
2018-10-11T06:08:03.045Z,30.60
2018-10-11T06:10:33.999Z,32.83
2018-10-11T06:13:04.105Z,29.90
2018-10-11T06:15:32.839Z,31.20
2018-10-11T06:18:02.391Z,32.10
2018-10-11T06:20:31.262Z,32.07
2018-10-11T06:23:00.465Z,35.57
2018-10-11T06:25:30.085Z,31.20
2018-10-11T06:27:59.203Z,32.20
2018-10-11T06:30:29.005Z,30.50
2018-10-11T06:32:57.912Z,33.37
2018-10-11T06:35:27.538Z,32.20
2018-10-11T06:37:57.010Z,32.33
2018-10-11T06:40:26.200Z,31.90
2018-10-11T06:42:55.029Z,33.23
2018-10-11T06:45:24.062Z,32.13
2018-10-11T06:47:57.567Z,33.77
2018-10-11T06:50:26.668Z,31.47
2018-10-11T06:52:55.687Z,31.90
2018-10-11T06:55:24.415Z,32.20
2018-10-11T06:57:53.430Z,31.13
2018-10-11T07:00:22.441Z,30.00
2018-10-11T07:02:51.563Z,31.43
2018-10-11T07:05:20.313Z,32.57
2018-10-11T07:07:49.356Z,32.20
2018-10-11T07:10:18.520Z,31.53
2018-10-11T07:12:47.196Z,30.80
2018-10-11T07:15:16.333Z,30.97
2018-10-11T07:17:45.109Z,31.83
2018-10-11T07:20:14.079Z,30.10
2018-10-11T07:22:42.902Z,30.70
2018-10-11T07:25:11.607Z,52.63
2018-10-11T07:27:40.783Z,31.63
2018-10-11T07:30:09.772Z,30.03
2018-10-11T07:32:38.537Z,29.00
2018-10-11T07:35:07.864Z,30.27
2018-10-11T07:37:37.204Z,30.80
2018-10-11T07:40:06.061Z,29.70
2018-10-11T07:42:35.158Z,29.63
2018-10-11T07:45:04.228Z,29.37
2018-10-11T07:47:32.973Z,28.27
2018-10-11T07:50:02.092Z,28.00
2018-10-11T07:52:30.918Z,28.43
2018-10-11T07:54:59.711Z,31.03
2018-10-11T07:57:28.572Z,28.73
2018-10-11T07:59:57.354Z,27.93
2018-10-11T08:02:26.062Z,26.87
2018-10-11T08:04:54.776Z,27.70
2018-10-11T08:07:23.617Z,28.80
2018-10-11T08:09:52.411Z,28.40
2018-10-11T08:12:21.454Z,27.53
2018-10-11T08:14:50.532Z,28.00
2018-10-11T08:17:20.005Z,26.67
2018-10-11T08:19:48.572Z,26.70
2018-10-11T08:22:17.643Z,27.37
2018-10-11T08:24:46.442Z,25.50
2018-10-11T08:27:16.117Z,25.90
2018-10-11T08:29:45.214Z,25.63
2018-10-11T08:32:14.035Z,25.50
2018-10-11T08:34:42.755Z,25.77
2018-10-11T08:37:11.512Z,25.27
2018-10-11T08:39:40.634Z,23.43
2018-10-11T08:42:09.767Z,23.60
2018-10-11T08:44:39.038Z,24.97
2018-10-11T08:47:08.100Z,22.63
2018-10-11T08:49:36.863Z,24.77
2018-10-11T08:52:06.183Z,24.47
2018-10-11T08:54:40.171Z,26.67
2018-10-11T08:57:10.561Z,23.13
2018-10-11T08:59:40.399Z,25.80
2018-10-11T09:02:09.153Z,25.07
2018-10-11T09:04:38.191Z,24.70
2018-10-11T09:07:07.089Z,25.30
2018-10-11T09:09:35.904Z,25.50
2018-10-11T09:12:04.979Z,23.40
2018-10-11T09:14:33.727Z,25.07
2018-10-11T09:17:02.504Z,24.87
2018-10-11T09:19:31.305Z,24.07
2018-10-11T09:22:00.809Z,23.63
2018-10-11T09:24:29.661Z,23.73
2018-10-11T09:26:58.590Z,23.43
2018-10-11T09:29:27.316Z,23.23
2018-10-11T09:31:56.175Z,21.80
2018-10-11T09:34:24.941Z,22.93
2018-10-11T09:36:53.739Z,22.30
2018-10-11T09:39:22.963Z,21.70
2018-10-11T09:41:52.528Z,22.00
2018-10-11T09:44:21.615Z,20.90
2018-10-11T09:46:50.405Z,21.33
2018-10-11T09:49:19.244Z,22.10
2018-10-11T09:51:48.261Z,22.07
2018-10-11T09:54:17.314Z,22.70
2018-10-11T09:57:21.828Z,20.67
2018-10-11T09:59:51.577Z,21.57
2018-10-11T10:02:21.154Z,21.33
2018-10-11T10:04:51.368Z,20.83
2018-10-11T10:07:20.773Z,22.00
2018-10-11T10:09:49.712Z,20.73
2018-10-11T10:12:18.687Z,21.43
2018-10-11T10:14:48.133Z,22.23
2018-10-11T10:17:17.126Z,20.50
2018-10-11T10:19:46.272Z,22.30
2018-10-11T10:22:14.965Z,22.30
2018-10-11T10:24:43.682Z,20.30
2018-10-11T10:27:12.932Z,21.37
2018-10-11T10:29:42.229Z,20.80
2018-10-11T10:32:11.315Z,20.97
2018-10-11T10:34:40.681Z,21.40
2018-10-11T10:37:09.384Z,21.50
2018-10-11T10:39:38.493Z,21.10
2018-10-11T10:42:07.869Z,19.83
2018-10-11T10:44:37.488Z,21.60
2018-10-11T10:47:06.520Z,20.90
2018-10-11T10:49:35.291Z,20.73
2018-10-11T10:52:04.004Z,21.13
2018-10-11T10:54:34.213Z,20.83
2018-10-11T10:57:03.862Z,21.33
2018-10-11T10:59:32.923Z,19.30
2018-10-11T11:02:01.596Z,20.67
2018-10-11T11:04:30.614Z,22.27
2018-10-11T11:06:59.597Z,20.27
2018-10-11T11:09:28.595Z,20.70
2018-10-11T11:11:57.658Z,19.63
2018-10-11T11:14:26.788Z,20.80
2018-10-11T11:16:55.460Z,20.33
2018-10-11T11:19:24.195Z,19.90
2018-10-11T11:21:53.842Z,20.00
2018-10-11T11:24:22.713Z,20.47
2018-10-11T11:26:51.470Z,19.07
2018-10-11T11:29:20.257Z,20.03
2018-10-11T11:31:48.889Z,19.60
2018-10-11T11:34:18.303Z,20.27
2018-10-11T11:36:47.059Z,19.73
2018-10-11T11:39:16.150Z,19.10
2018-10-11T11:41:45.224Z,20.07
2018-10-11T11:44:13.946Z,19.63
2018-10-11T11:46:42.639Z,19.33
2018-10-11T11:49:11.690Z,21.00
2018-10-11T11:51:40.560Z,21.57
2018-10-11T11:54:25.750Z,19.27
2018-10-11T11:56:54.976Z,20.23
2018-10-11T11:59:23.937Z,20.57
2018-10-11T12:01:52.918Z,18.83
2018-10-11T12:04:22.362Z,20.10
2018-10-11T12:06:51.026Z,19.23
2018-10-11T12:09:20.132Z,19.70
2018-10-11T12:11:49.146Z,21.10
2018-10-11T12:14:17.958Z,19.13
2018-10-11T12:16:46.785Z,18.90
2018-10-11T12:19:15.539Z,19.30
2018-10-11T12:21:44.587Z,19.63
2018-10-11T12:24:13.394Z,20.17
2018-10-11T12:26:42.569Z,19.57
2018-10-11T12:29:11.282Z,20.57
2018-10-11T12:31:38.875Z,19.17
2018-10-11T12:34:07.666Z,19.17
2018-10-11T12:36:37.044Z,20.03
2018-10-11T12:39:07.711Z,19.70
2018-10-11T12:41:36.531Z,21.00
2018-10-11T12:44:05.312Z,20.00
2018-10-11T12:46:34.751Z,19.73
2018-10-11T12:49:03.366Z,20.10
2018-10-11T12:51:32.152Z,20.60
2018-10-11T12:54:01.191Z,20.07
2018-10-11T12:56:30.359Z,19.20
2018-10-11T12:58:59.151Z,19.33
2018-10-11T13:01:27.943Z,19.63
2018-10-11T13:03:56.766Z,19.30
2018-10-11T13:06:25.510Z,20.70
2018-10-11T13:08:54.416Z,18.83
2018-10-11T13:11:23.449Z,19.80
2018-10-11T13:13:53.072Z,19.30
2018-10-11T13:16:21.641Z,19.53
2018-10-11T13:18:50.466Z,20.50
2018-10-11T13:21:19.642Z,19.50
2018-10-11T13:23:48.311Z,19.43
2018-10-11T13:26:17.065Z,19.70
2018-10-11T13:28:46.128Z,19.20
2018-10-11T13:31:15.105Z,19.07
2018-10-11T13:33:43.993Z,18.90
2018-10-11T13:36:13.038Z,19.87
2018-10-11T13:38:42.994Z,20.97
2018-10-11T13:41:12.522Z,19.27
2018-10-11T13:43:43.809Z,19.37
2018-10-11T13:46:13.987Z,18.67
2018-10-11T13:48:43.419Z,18.47
2018-10-11T13:51:13.993Z,19.37
2018-10-11T13:53:46.822Z,19.03
2018-10-11T13:56:13.425Z,18.47
2018-10-11T13:58:42.786Z,19.27
2018-10-11T14:01:13.263Z,19.47
2018-10-11T14:03:42.185Z,18.87
2018-10-11T14:06:10.168Z,18.20
2018-10-11T14:08:41.384Z,18.30
2018-10-11T14:11:10.832Z,18.47
2018-10-11T14:13:42.130Z,20.10
2018-10-11T14:16:14.098Z,18.33
2018-10-11T14:18:43.834Z,18.50
2018-10-11T14:21:13.218Z,17.70
2018-10-11T14:23:42.615Z,18.10
2018-10-11T14:26:13.146Z,18.90
2018-10-11T14:28:42.346Z,18.07
2018-10-11T14:31:11.628Z,18.47
2018-10-11T14:33:40.901Z,19.10
2018-10-11T14:36:11.139Z,17.03
2018-10-11T14:38:40.627Z,18.03
2018-10-11T14:41:09.576Z,17.27
2018-10-11T14:43:39.945Z,17.33
2018-10-11T14:46:10.650Z,17.57
2018-10-11T14:48:39.373Z,17.30
2018-10-11T14:51:08.954Z,18.40
2018-10-11T14:53:37.768Z,18.17
2018-10-11T14:56:06.571Z,16.37
2018-10-11T14:58:35.403Z,17.80
2018-10-11T15:01:04.500Z,18.23
2018-10-11T15:03:34.561Z,17.50
2018-10-11T15:06:04.071Z,18.40
2018-10-11T15:08:34.714Z,17.10
2018-10-11T15:11:05.006Z,18.60
2018-10-11T15:13:34.873Z,17.80
2018-10-11T15:16:03.762Z,17.80
2018-10-11T15:18:32.423Z,17.60
2018-10-11T15:21:01.259Z,18.40
2018-10-11T15:23:29.923Z,19.27
2018-10-11T15:25:58.906Z,17.60
2018-10-11T15:28:27.597Z,18.87
2018-10-11T15:30:56.339Z,16.67
2018-10-11T15:33:25.029Z,17.07
2018-10-11T15:35:53.783Z,18.17
2018-10-11T15:38:22.891Z,16.57
2018-10-11T15:40:51.892Z,17.70
2018-10-11T15:43:20.894Z,17.57
2018-10-11T15:45:49.985Z,16.97
2018-10-11T15:48:19.018Z,17.23
2018-10-11T15:50:48.053Z,18.13
2018-10-11T15:53:17.639Z,17.03
2018-10-11T15:55:46.806Z,17.27
2018-10-11T15:58:15.625Z,16.20
2018-10-11T16:00:44.521Z,17.00
2018-10-11T16:03:13.544Z,16.53
2018-10-11T16:05:42.788Z,17.20
2018-10-11T16:08:11.593Z,18.30
2018-10-11T16:10:40.304Z,18.77
2018-10-11T16:13:09.087Z,18.83
2018-10-11T16:15:38.222Z,16.90
2018-10-11T16:18:07.028Z,18.47
2018-10-11T16:20:36.022Z,19.07
2018-10-11T16:23:05.065Z,17.67
2018-10-11T16:25:33.746Z,19.10
2018-10-11T16:28:02.866Z,18.50
2018-10-11T16:30:31.634Z,19.73
2018-10-11T16:33:00.730Z,25.40
2018-10-11T16:35:30.778Z,30.30
2018-10-11T16:37:59.514Z,23.00
2018-10-11T16:40:28.576Z,19.30
2018-10-11T16:42:58.097Z,18.10
2018-10-11T16:45:26.932Z,18.63
2018-10-11T16:47:55.715Z,17.93
2018-10-11T16:50:24.439Z,19.13
2018-10-11T16:52:53.273Z,18.63
2018-10-11T16:55:22.108Z,18.37
2018-10-11T16:57:51.156Z,18.60
2018-10-11T17:00:19.895Z,21.40
2018-10-11T17:02:49.004Z,22.43
2018-10-11T17:05:18.368Z,21.93
2018-10-11T17:07:47.092Z,20.03
2018-10-11T17:10:16.005Z,19.50
2018-10-11T17:12:45.041Z,20.50
2018-10-11T17:15:14.204Z,19.20
2018-10-11T17:17:44.095Z,19.37
2018-10-11T17:20:13.213Z,19.00
2018-10-11T17:22:42.000Z,19.70
2018-10-11T17:25:10.795Z,19.37
2018-10-11T17:27:39.990Z,18.40
2018-10-11T17:30:09.175Z,19.80
2018-10-11T17:32:38.480Z,21.37
2018-10-11T17:35:07.319Z,23.33
2018-10-11T17:37:36.275Z,25.17
2018-10-11T17:40:05.044Z,25.40
2018-10-11T17:42:34.747Z,27.20
2018-10-11T17:45:04.314Z,29.63
2018-10-11T17:47:34.865Z,30.20
2018-10-11T17:50:03.979Z,26.00
2018-10-11T17:52:32.858Z,23.40
2018-10-11T17:55:02.079Z,23.40
2018-10-11T17:57:31.139Z,24.07
2018-10-11T18:00:00.029Z,23.80
2018-10-11T18:02:28.890Z,21.57
2018-10-11T18:04:57.815Z,21.83
2018-10-11T18:07:26.793Z,20.60
2018-10-11T18:09:56.532Z,22.40
2018-10-11T18:12:25.548Z,22.20
2018-10-11T18:14:54.805Z,22.20
2018-10-11T18:17:24.042Z,22.17
2018-10-11T18:19:54.666Z,21.10
2018-10-11T18:22:23.488Z,21.50
2018-10-11T18:24:52.613Z,21.47
2018-10-11T18:27:21.401Z,39.30
2018-10-11T18:29:52.137Z,32.00
2018-10-11T18:32:21.386Z,24.17
2018-10-11T18:34:50.455Z,20.80
2018-10-11T18:37:19.715Z,21.60
2018-10-11T18:39:48.931Z,23.97
2018-10-11T18:42:18.005Z,26.00
2018-10-11T18:44:48.355Z,21.33
2018-10-11T18:47:17.304Z,21.77
2018-10-11T18:49:46.141Z,21.47
2018-10-11T18:52:15.362Z,21.20
2018-10-11T18:54:44.387Z,20.70
2018-10-11T18:57:14.320Z,21.60
2018-10-11T18:59:44.483Z,21.63
2018-10-11T19:02:13.659Z,21.50
2018-10-11T19:04:42.607Z,21.07
2018-10-11T19:07:11.581Z,22.47
2018-10-11T19:09:40.597Z,22.60
2018-10-11T19:12:10.863Z,23.27
2018-10-11T19:14:39.656Z,21.37
2018-10-11T19:17:08.542Z,21.87
2018-10-11T19:19:37.299Z,23.70
2018-10-11T19:22:06.161Z,21.90
2018-10-11T19:24:35.011Z,23.60
2018-10-11T19:27:04.004Z,23.40
2018-10-11T19:29:32.896Z,24.20
2018-10-11T19:32:01.863Z,22.73
2018-10-11T19:34:30.993Z,21.30
2018-10-11T19:37:00.696Z,22.40
2018-10-11T19:39:29.522Z,22.87
2018-10-11T19:41:58.279Z,22.83
2018-10-11T19:44:27.121Z,21.33
2018-10-11T19:46:55.981Z,21.87
2018-10-11T19:49:25.369Z,21.87
2018-10-11T19:51:54.118Z,23.30
2018-10-11T19:54:22.882Z,23.20
2018-10-11T19:56:51.935Z,21.67
2018-10-11T19:59:21.748Z,21.63
2018-10-11T20:01:51.574Z,22.30
2018-10-11T20:04:20.932Z,29.03
2018-10-11T20:06:50.172Z,24.10
2018-10-11T20:09:18.940Z,22.83
2018-10-11T20:11:48.207Z,23.07
2018-10-11T20:14:17.042Z,22.60
2018-10-11T20:16:45.936Z,22.83
2018-10-11T20:19:16.404Z,22.13
2018-10-11T20:21:45.524Z,22.80
2018-10-11T20:24:14.368Z,23.37
2018-10-11T20:26:43.396Z,23.17
2018-10-11T20:29:12.178Z,21.33
2018-10-11T20:31:41.220Z,22.23
2018-10-11T20:34:09.981Z,22.53
2018-10-11T20:36:38.996Z,22.20
2018-10-11T20:39:09.360Z,22.80
2018-10-11T20:41:38.808Z,22.67
2018-10-11T20:44:07.871Z,31.83
2018-10-11T20:46:36.930Z,23.50
2018-10-11T20:49:06.147Z,21.23
2018-10-11T20:51:35.122Z,22.33
2018-10-11T20:54:04.213Z,20.57
2018-10-11T20:56:34.094Z,20.90
2018-10-11T20:59:04.470Z,21.87
2018-10-11T21:01:33.608Z,21.27
2018-10-11T21:04:03.390Z,20.93
2018-10-11T21:06:32.494Z,20.43
2018-10-11T21:09:01.774Z,26.10
2018-10-11T21:11:30.644Z,25.93
2018-10-11T21:13:59.400Z,39.07
2018-10-11T21:16:28.646Z,26.23
2018-10-11T21:18:57.484Z,25.57
2018-10-11T21:21:26.543Z,30.47
2018-10-11T21:23:55.680Z,21.70
2018-10-11T21:26:24.522Z,19.60
2018-10-11T21:28:53.583Z,20.50
2018-10-11T21:31:22.622Z,21.10
2018-10-11T21:33:51.296Z,20.00
2018-10-11T21:36:20.852Z,20.87
2018-10-11T21:38:50.202Z,21.17
2018-10-11T21:41:19.194Z,20.40
2018-10-11T21:43:49.026Z,28.10
2018-10-11T21:46:19.092Z,25.90
2018-10-11T21:48:49.151Z,19.67
2018-10-11T21:51:18.623Z,19.43
2018-10-11T21:53:49.130Z,19.70
2018-10-11T21:56:18.838Z,19.60
2018-10-11T21:58:48.570Z,20.23
2018-10-11T22:01:20.173Z,19.60
2018-10-11T22:03:53.816Z,18.73
2018-10-11T22:06:23.696Z,18.90
2018-10-11T22:08:52.639Z,20.23
2018-10-11T22:11:22.990Z,20.50
2018-10-11T22:13:53.030Z,32.10
2018-10-11T22:16:22.856Z,23.30
2018-10-11T22:18:52.380Z,37.93
2018-10-11T22:21:22.775Z,21.57
2018-10-11T22:23:52.512Z,28.60
2018-10-11T22:26:22.052Z,26.37
2018-10-11T22:28:51.865Z,19.90
2018-10-11T22:31:22.342Z,19.10
2018-10-11T22:33:51.817Z,18.13
2018-10-11T22:36:22.380Z,19.07
2018-10-11T22:38:51.523Z,18.60
2018-10-11T22:41:20.762Z,20.00
2018-10-11T22:43:50.506Z,26.67
2018-10-11T22:46:20.911Z,26.20
2018-10-11T22:48:50.842Z,18.80
2018-10-11T22:51:20.687Z,18.10
2018-10-11T22:53:52.046Z,18.43
2018-10-11T22:56:22.296Z,18.50
2018-10-11T22:58:52.379Z,18.40
2018-10-11T23:01:21.200Z,19.30
2018-10-11T23:03:50.278Z,18.87
2018-10-11T23:06:20.531Z,18.73
2018-10-11T23:08:49.387Z,20.30
2018-10-11T23:11:18.224Z,19.93
2018-10-11T23:13:47.161Z,19.00
2018-10-11T23:16:16.538Z,19.30
2018-10-11T23:18:45.980Z,19.47
2018-10-11T23:21:14.875Z,19.67
2018-10-11T23:23:45.018Z,19.80
2018-10-11T23:26:13.969Z,19.20
2018-10-11T23:28:43.068Z,19.90
2018-10-11T23:31:12.918Z,19.17
2018-10-11T23:33:43.506Z,19.60
2018-10-11T23:36:12.363Z,19.70
2018-10-11T23:38:41.858Z,19.27
2018-10-11T23:41:11.127Z,19.53
2018-10-11T23:43:40.750Z,19.97
2018-10-11T23:46:11.302Z,20.47
2018-10-11T23:48:40.387Z,19.23
2018-10-11T23:51:10.018Z,20.27
2018-10-11T23:53:39.963Z,19.03
2018-10-11T23:56:10.177Z,20.47
2018-10-11T23:58:39.560Z,19.27
